​ ​

Форум клана ЧПУшников

Информация о пользователе

Привет, Гость! Войдите или зарегистрируйтесь.


Вы здесь » Форум клана ЧПУшников » Лазерные станки


Лазерные станки

Тем 481 страница 560 из 663

Тема Ответов Просмотров Последнее сообщение
4 221 15-10-2016 22:01:46  neon2k
57 7828 14-10-2016 07:47:52  pdm81
26 1517 13-10-2016 12:16:40  Вячеслав81
2 264 10-10-2016 09:20:01  Killa312
55 1803 03-10-2016 10:51:02  Pawell
3 212 01-10-2016 11:37:11  Sofka
18 502 18-09-2016 10:05:04  Babe Sugar
6 434 15-09-2016 16:41:34  Svetim
17 840 14-09-2016 17:39:16  coldhardpuma
22 603 10-09-2016 12:51:10  Ярослав Кузнецов
27 414 07-09-2016 15:12:46  Sergey AA
54 2359 05-09-2016 18:45:50  firestone
10 456 04-09-2016 14:04:34  AirPhoto
4 229 02-09-2016 22:34:42  uxtbl
1 393 26-08-2016 12:58:27  Orcansler
4 187 25-08-2016 16:48:13  *SvEtLaNKa*
7 524 19-08-2016 12:28:43  Юрий Анатольевич
14 2732 19-08-2016 09:59:24  cheeze
7 527 16-08-2016 14:15:08  Юрий Анатольевич
21 1540 29-07-2016 11:28:19  ЫХ-000
3 263 25-07-2016 12:13:13  Kuz
1 292 20-07-2016 16:00:47  Maxim Korolev
6 1134 19-07-2016 20:00:25  YuSTas
2 133 18-07-2016 10:25:53  byshaeva
81 2708 17-07-2016 11:06:33  Сергей Кравчик
2 279 09-07-2016 14:27:04  Killa312
11 952 07-07-2016 15:18:42  Hotory
25 810 27-06-2016 21:44:32  Salon-max
38 2215 27-06-2016 05:30:23  Юрецкий
14 482 26-06-2016 11:49:07  Quark
48 1421 24-06-2016 20:06:01  Иван1985
9 685 24-06-2016 19:54:50  Иван1985
16 722 24-06-2016 15:25:23  Sergey AA
2 136 24-06-2016 12:14:53  messer1988
8 544 22-06-2016 15:04:25  Sergey AA
8 1908 16-06-2016 22:36:09  megagad
517 Лазерное оборудование  Администратор  [ 1 2 3 ]
204 18807 12-06-2016 11:02:33  Andrey55
4 287 06-06-2016 09:19:33  Zmeei
24 1163 02-06-2016 16:29:32  Sofka
16 427 02-06-2016 09:43:13  ilcomp
3 166 31-05-2016 11:04:49  SmileCat
14 515 29-05-2016 10:38:37  Neudrums
19 1094 28-05-2016 00:03:48  Sborka
19 277 25-05-2016 12:15:46  Mikky
8 442 24-05-2016 15:31:24  sonr
21 3650 23-05-2016 23:42:46  Avel
527 Волнистый рез  angrydemon
4 338 23-05-2016 17:44:30  YuSTas
2 137 05-05-2016 11:02:05  Kuz
7 454 04-05-2016 01:16:19  snowman
10 444 28-04-2016 20:21:01  Kirian
1 169 28-04-2016 19:58:34  Kirian
37 1346 28-04-2016 14:14:04  neotex
3 869 27-04-2016 20:39:04  andrey_e
6 326 27-04-2016 16:16:09  denisej
535 Reci s2  Neudrums
35 938 26-04-2016 21:17:31  Элинка
5 524 25-04-2016 16:52:18  MPN
15 1852 23-04-2016 22:53:06  Sokrat
9 597 23-04-2016 17:45:11  Tab
35 1302 23-04-2016 13:05:00  Valera5609
18 1054 21-04-2016 12:07:58  f.laser
1 184 17-04-2016 23:10:04  megagad
542 Резка с углекислотой  Виктор Краски
23 1034 17-04-2016 08:59:55  Flint2015
13 1964 15-04-2016 11:34:20  ImageLaser
11 335 11-04-2016 14:35:21  MaxMaster
13 420 09-04-2016 20:30:46  aldushin
5 297 06-04-2016 17:28:09  daguss
547 Закрыта Фото готовых работ выполненных на лазере  Администратор  [ 1 2 3  10 ]
991 99976 29-03-2016 17:50:18  sva-don
548 Закрыта Резко упала мощность  Neudrums
10 440 24-03-2016 00:59:57  Neudrums
5 539 22-03-2016 20:12:39  Дилик
550 Прошу помощи.  Назар
5 424 16-03-2016 09:51:09  Назар
8 263 14-03-2016 16:51:53  Расулыч
7 571 10-03-2016 20:36:59  chirik
5 849 07-03-2016 20:32:32  Flint2015
19 1854 04-03-2016 17:27:39  Airside
4 248 29-02-2016 22:43:44  nikson
5 207 27-02-2016 08:50:26  Flint2015
557 Тестирование размера реза  Виктор Краски
9 519 26-02-2016 16:55:55  daguss
558 кривая резка  Восходник
17 523 26-02-2016 00:06:30  semerochka
80 7133 22-02-2016 20:51:36  Kinetic
17 1139 22-02-2016 12:02:26  Kinetic

Вы здесь » Форум клана ЧПУшников » Лазерные станки